sensor_id;sensor_type;location;lat;lon;timestamp;temperature;humidity
72936;DHT22;61085;48.804;9.228;2022-12-18T00:01:32;-5.70;99.90
72936;DHT22;61085;48.804;9.228;2022-12-18T00:04:00;-5.80;99.90
72936;DHT22;61085;48.804;9.228;2022-12-18T00:06:27;-5.80;99.90
72936;DHT22;61085;48.804;9.228;2022-12-18T00:08:57;-5.80;99.90
72936;DHT22;61085;48.804;9.228;2022-12-18T00:11:25;-5.80;99.90
72936;DHT22;61085;48.804;9.228;2022-12-18T00:13:53;-5.70;99.90
72936;DHT22;61085;48.804;9.228;2022-12-18T00:16:21;-5.70;99.90
72936;DHT22;61085;48.804;9.228;2022-12-18T00:18:52;-5.70;99.90
72936;DHT22;61085;48.804;9.228;2022-12-18T00:21:18;-5.80;99.90
72936;DHT22;61085;48.804;9.228;2022-12-18T00:23:45;-5.70;99.90
72936;DHT22;61085;48.804;9.228;2022-12-18T00:26:14;-5.90;99.90
72936;DHT22;61085;48.804;9.228;2022-12-18T00:28:41;-5.80;99.90
72936;DHT22;61085;48.804;9.228;2022-12-18T00:31:12;-5.90;99.90
72936;DHT22;61085;48.804;9.228;2022-12-18T00:33:38;-6.00;99.90
72936;DHT22;61085;48.804;9.228;2022-12-18T00:36:07;-6.10;99.90
72936;DHT22;61085;48.804;9.228;2022-12-18T00:38:34;-6.10;99.90
72936;DHT22;61085;48.804;9.228;2022-12-18T00:41:00;-6.00;99.90
72936;DHT22;61085;48.804;9.228;2022-12-18T00:43:26;-5.70;99.90
72936;DHT22;61085;48.804;9.228;2022-12-18T00:45:52;-5.80;99.90
72936;DHT22;61085;48.804;9.228;2022-12-18T00:48:17;-5.80;99.90
72936;DHT22;61085;48.804;9.228;2022-12-18T00:50:43;-5.80;99.90
72936;DHT22;61085;48.804;9.228;2022-12-18T00:53:08;-5.80;99.90
72936;DHT22;61085;48.804;9.228;2022-12-18T00:55:34;-5.90;99.90
72936;DHT22;61085;48.804;9.228;2022-12-18T00:58:00;-6.00;99.90
72936;DHT22;61085;48.804;9.228;2022-12-18T01:00:25;-5.90;99.90
72936;DHT22;61085;48.804;9.228;2022-12-18T01:02:51;-5.70;99.90
72936;DHT22;61085;48.804;9.228;2022-12-18T01:05:16;-5.80;99.90
72936;DHT22;61085;48.804;9.228;2022-12-18T01:07:42;-5.70;99.90
72936;DHT22;61085;48.804;9.228;2022-12-18T01:10:09;-5.80;99.90
72936;DHT22;61085;48.804;9.228;2022-12-18T01:12:37;-5.70;99.90
72936;DHT22;61085;48.804;9.228;2022-12-18T01:15:04;-5.60;99.90
72936;DHT22;61085;48.804;9.228;2022-12-18T01:17:30;-5.60;99.90
72936;DHT22;61085;48.804;9.228;2022-12-18T01:19:56;-5.40;99.90
72936;DHT22;61085;48.804;9.228;2022-12-18T01:22:21;-5.50;99.90
72936;DHT22;61085;48.804;9.228;2022-12-18T01:24:47;-5.50;99.90
72936;DHT22;61085;48.804;9.228;2022-12-18T01:27:13;-5.60;99.90
72936;DHT22;61085;48.804;9.228;2022-12-18T01:29:38;-5.80;99.90
72936;DHT22;61085;48.804;9.228;2022-12-18T01:32:04;-6.00;99.90
72936;DHT22;61085;48.804;9.228;2022-12-18T01:34:30;-6.00;99.90
72936;DHT22;61085;48.804;9.228;2022-12-18T01:36:55;-6.10;99.90
72936;DHT22;61085;48.804;9.228;2022-12-18T01:39:21;-6.10;99.90
72936;DHT22;61085;48.804;9.228;2022-12-18T01:41:47;-6.20;99.90
72936;DHT22;61085;48.804;9.228;2022-12-18T01:47:26;-6.20;99.90
72936;DHT22;61085;48.804;9.228;2022-12-18T01:49:53;-6.30;99.90
72936;DHT22;61085;48.804;9.228;2022-12-18T01:52:20;-6.30;99.90
72936;DHT22;61085;48.804;9.228;2022-12-18T01:54:47;-6.40;99.90
72936;DHT22;61085;48.804;9.228;2022-12-18T01:57:14;-6.40;99.90
72936;DHT22;61085;48.804;9.228;2022-12-18T01:59:42;-6.40;99.90
72936;DHT22;61085;48.804;9.228;2022-12-18T02:02:08;-6.30;99.90
72936;DHT22;61085;48.804;9.228;2022-12-18T02:04:34;-6.30;99.90
72936;DHT22;61085;48.804;9.228;2022-12-18T02:09:46;-6.30;99.90
72936;DHT22;61085;48.804;9.228;2022-12-18T02:12:18;-6.30;99.90
72936;DHT22;61085;48.804;9.228;2022-12-18T02:17:51;-6.30;99.90
72936;DHT22;61085;48.804;9.228;2022-12-18T02:23:09;-6.30;99.90
72936;DHT22;61085;48.804;9.228;2022-12-18T02:28:13;-6.10;99.90
72936;DHT22;61085;48.804;9.228;2022-12-18T02:30:41;-6.10;99.90
72936;DHT22;61085;48.804;9.228;2022-12-18T02:33:09;-6.00;99.90
72936;DHT22;61085;48.804;9.228;2022-12-18T02:35:36;-5.90;99.90
72936;DHT22;61085;48.804;9.228;2022-12-18T02:38:04;-5.90;99.90
72936;DHT22;61085;48.804;9.228;2022-12-18T02:40:30;-5.90;99.90
72936;DHT22;61085;48.804;9.228;2022-12-18T02:43:12;-5.90;99.90
72936;DHT22;61085;48.804;9.228;2022-12-18T02:45:54;-6.00;99.90
72936;DHT22;61085;48.804;9.228;2022-12-18T02:48:32;-6.00;99.90
72936;DHT22;61085;48.804;9.228;2022-12-18T02:53:56;-5.90;99.90
72936;DHT22;61085;48.804;9.228;2022-12-18T02:56:51;-5.90;99.90
72936;DHT22;61085;48.804;9.228;2022-12-18T02:59:46;-5.80;99.90
72936;DHT22;61085;48.804;9.228;2022-12-18T03:02:25;-5.70;99.90
72936;DHT22;61085;48.804;9.228;2022-12-18T03:07:27;-6.00;99.90
72936;DHT22;61085;48.804;9.228;2022-12-18T03:09:56;-6.00;99.90
72936;DHT22;61085;48.804;9.228;2022-12-18T03:12:30;-6.10;99.90
72936;DHT22;61085;48.804;9.228;2022-12-18T03:15:30;-6.10;99.90
72936;DHT22;61085;48.804;9.228;2022-12-18T03:18:01;-6.10;99.90
72936;DHT22;61085;48.804;9.228;2022-12-18T03:20:29;-6.00;99.90
72936;DHT22;61085;48.804;9.228;2022-12-18T03:23:02;-6.10;99.90
72936;DHT22;61085;48.804;9.228;2022-12-18T03:25:30;-6.00;99.90
72936;DHT22;61085;48.804;9.228;2022-12-18T03:27:59;-5.90;99.90
72936;DHT22;61085;48.804;9.228;2022-12-18T03:30:28;-5.80;99.90
72936;DHT22;61085;48.804;9.228;2022-12-18T03:33:18;-5.80;99.90
72936;DHT22;61085;48.804;9.228;2022-12-18T03:35:45;-5.90;99.90
72936;DHT22;61085;48.804;9.228;2022-12-18T03:38:11;-5.80;99.90
72936;DHT22;61085;48.804;9.228;2022-12-18T03:41:09;-5.80;99.90
72936;DHT22;61085;48.804;9.228;2022-12-18T03:46:35;-5.80;99.90
72936;DHT22;61085;48.804;9.228;2022-12-18T03:49:11;-6.00;99.90
72936;DHT22;61085;48.804;9.228;2022-12-18T03:51:52;-6.00;99.90
72936;DHT22;61085;48.804;9.228;2022-12-18T03:54:21;-6.00;99.90
72936;DHT22;61085;48.804;9.228;2022-12-18T03:56:52;-6.00;99.90
72936;DHT22;61085;48.804;9.228;2022-12-18T03:59:20;-6.10;99.90
72936;DHT22;61085;48.804;9.228;2022-12-18T04:01:49;-6.20;99.90
72936;DHT22;61085;48.804;9.228;2022-12-18T04:04:17;-6.20;99.90
72936;DHT22;61085;48.804;9.228;2022-12-18T04:06:45;-6.10;99.90
72936;DHT22;61085;48.804;9.228;2022-12-18T04:09:13;-6.20;99.90
72936;DHT22;61085;48.804;9.228;2022-12-18T04:11:40;-6.20;99.90
72936;DHT22;61085;48.804;9.228;2022-12-18T04:14:06;-6.20;99.90
72936;DHT22;61085;48.804;9.228;2022-12-18T04:16:32;-6.10;99.90
72936;DHT22;61085;48.804;9.228;2022-12-18T04:18:57;-6.00;99.90
72936;DHT22;61085;48.804;9.228;2022-12-18T04:21:23;-6.00;99.90
72936;DHT22;61085;48.804;9.228;2022-12-18T04:23:49;-6.10;99.90
72936;DHT22;61085;48.804;9.228;2022-12-18T04:26:14;-6.10;99.90
72936;DHT22;61085;48.804;9.228;2022-12-18T04:28:40;-6.00;99.90
72936;DHT22;61085;48.804;9.228;2022-12-18T04:31:05;-6.00;99.90
72936;DHT22;61085;48.804;9.228;2022-12-18T04:33:31;-6.10;99.90
72936;DHT22;61085;48.804;9.228;2022-12-18T04:35:57;-6.10;99.90
72936;DHT22;61085;48.804;9.228;2022-12-18T04:38:23;-6.20;99.90
72936;DHT22;61085;48.804;9.228;2022-12-18T04:40:48;-6.10;99.90
72936;DHT22;61085;48.804;9.228;2022-12-18T04:43:14;-6.20;99.90
72936;DHT22;61085;48.804;9.228;2022-12-18T04:45:39;-6.30;99.90
72936;DHT22;61085;48.804;9.228;2022-12-18T04:48:05;-6.30;99.90
72936;DHT22;61085;48.804;9.228;2022-12-18T04:50:31;-6.30;99.90
72936;DHT22;61085;48.804;9.228;2022-12-18T04:52:57;-6.20;99.90
72936;DHT22;61085;48.804;9.228;2022-12-18T04:55:23;-6.20;99.90
72936;DHT22;61085;48.804;9.228;2022-12-18T04:57:48;-6.30;99.90
72936;DHT22;61085;48.804;9.228;2022-12-18T05:00:14;-6.40;99.90
72936;DHT22;61085;48.804;9.228;2022-12-18T05:02:40;-6.60;99.90
72936;DHT22;61085;48.804;9.228;2022-12-18T05:05:06;-6.60;99.90
72936;DHT22;61085;48.804;9.228;2022-12-18T05:07:31;-6.70;99.90
72936;DHT22;61085;48.804;9.228;2022-12-18T05:09:57;-6.80;99.90
72936;DHT22;61085;48.804;9.228;2022-12-18T05:12:22;-6.80;99.90
72936;DHT22;61085;48.804;9.228;2022-12-18T05:14:49;-6.70;99.90
72936;DHT22;61085;48.804;9.228;2022-12-18T05:17:15;-6.70;99.90
72936;DHT22;61085;48.804;9.228;2022-12-18T05:19:41;-6.60;99.90
72936;DHT22;61085;48.804;9.228;2022-12-18T05:22:06;-6.70;99.90
72936;DHT22;61085;48.804;9.228;2022-12-18T05:24:32;-6.60;99.90
72936;DHT22;61085;48.804;9.228;2022-12-18T05:26:57;-6.60;99.90
72936;DHT22;61085;48.804;9.228;2022-12-18T05:29:23;-6.60;99.90
72936;DHT22;61085;48.804;9.228;2022-12-18T05:31:49;-6.60;99.90
72936;DHT22;61085;48.804;9.228;2022-12-18T05:34:14;-6.50;99.90
72936;DHT22;61085;48.804;9.228;2022-12-18T05:36:40;-6.50;99.90
72936;DHT22;61085;48.804;9.228;2022-12-18T05:39:06;-6.50;99.90
72936;DHT22;61085;48.804;9.228;2022-12-18T05:41:31;-6.50;99.90
72936;DHT22;61085;48.804;9.228;2022-12-18T05:43:58;-6.60;99.90
72936;DHT22;61085;48.804;9.228;2022-12-18T05:46:23;-6.50;99.90
72936;DHT22;61085;48.804;9.228;2022-12-18T05:48:50;-6.60;99.90
72936;DHT22;61085;48.804;9.228;2022-12-18T05:51:18;-6.60;99.90
72936;DHT22;61085;48.804;9.228;2022-12-18T05:53:45;-6.70;99.90
72936;DHT22;61085;48.804;9.228;2022-12-18T05:56:14;-6.70;99.90
72936;DHT22;61085;48.804;9.228;2022-12-18T05:58:40;-6.80;99.90
72936;DHT22;61085;48.804;9.228;2022-12-18T06:01:17;-6.80;99.90
72936;DHT22;61085;48.804;9.228;2022-12-18T06:03:43;-6.80;99.90
72936;DHT22;61085;48.804;9.228;2022-12-18T06:06:14;-6.90;99.90
72936;DHT22;61085;48.804;9.228;2022-12-18T06:08:40;-6.60;99.90
72936;DHT22;61085;48.804;9.228;2022-12-18T06:11:05;-6.70;99.90
72936;DHT22;61085;48.804;9.228;2022-12-18T06:13:31;-6.80;99.90
72936;DHT22;61085;48.804;9.228;2022-12-18T06:15:57;-6.80;99.90
72936;DHT22;61085;48.804;9.228;2022-12-18T06:18:23;-6.70;99.90
72936;DHT22;61085;48.804;9.228;2022-12-18T06:20:58;-6.90;99.90
72936;DHT22;61085;48.804;9.228;2022-12-18T06:23:25;-6.80;99.90
72936;DHT22;61085;48.804;9.228;2022-12-18T06:25:51;-6.90;99.90
72936;DHT22;61085;48.804;9.228;2022-12-18T06:28:17;-6.90;99.90
72936;DHT22;61085;48.804;9.228;2022-12-18T06:30:47;-7.00;99.90
72936;DHT22;61085;48.804;9.228;2022-12-18T06:33:14;-6.80;99.90
72936;DHT22;61085;48.804;9.228;2022-12-18T06:35:40;-6.90;99.90
72936;DHT22;61085;48.804;9.228;2022-12-18T06:38:05;-6.80;99.90
72936;DHT22;61085;48.804;9.228;2022-12-18T06:40:31;-6.80;99.90
72936;DHT22;61085;48.804;9.228;2022-12-18T06:42:57;-6.70;99.90
72936;DHT22;61085;48.804;9.228;2022-12-18T06:45:22;-6.60;99.90
72936;DHT22;61085;48.804;9.228;2022-12-18T06:47:48;-6.50;99.90
72936;DHT22;61085;48.804;9.228;2022-12-18T06:50:14;-6.50;99.90
72936;DHT22;61085;48.804;9.228;2022-12-18T06:52:40;-6.60;99.90
72936;DHT22;61085;48.804;9.228;2022-12-18T06:55:06;-6.70;99.90
72936;DHT22;61085;48.804;9.228;2022-12-18T06:57:33;-6.70;99.90
72936;DHT22;61085;48.804;9.228;2022-12-18T06:59:59;-6.80;99.90
72936;DHT22;61085;48.804;9.228;2022-12-18T07:02:25;-7.10;99.90
72936;DHT22;61085;48.804;9.228;2022-12-18T07:04:51;-7.20;99.90
72936;DHT22;61085;48.804;9.228;2022-12-18T07:07:17;-7.00;99.90
72936;DHT22;61085;48.804;9.228;2022-12-18T07:09:42;-7.30;99.90
72936;DHT22;61085;48.804;9.228;2022-12-18T07:12:08;-7.10;99.90
72936;DHT22;61085;48.804;9.228;2022-12-18T07:14:33;-7.20;99.90
72936;DHT22;61085;48.804;9.228;2022-12-18T07:16:59;-7.10;99.90
72936;DHT22;61085;48.804;9.228;2022-12-18T07:19:25;-7.10;99.90
72936;DHT22;61085;48.804;9.228;2022-12-18T07:21:51;-7.10;99.90
72936;DHT22;61085;48.804;9.228;2022-12-18T07:24:16;-7.10;99.90
72936;DHT22;61085;48.804;9.228;2022-12-18T07:26:42;-7.00;99.90
72936;DHT22;61085;48.804;9.228;2022-12-18T07:29:08;-7.00;99.90
72936;DHT22;61085;48.804;9.228;2022-12-18T07:31:33;-6.90;99.90
72936;DHT22;61085;48.804;9.228;2022-12-18T07:33:59;-6.80;99.90
72936;DHT22;61085;48.804;9.228;2022-12-18T07:36:25;-6.90;99.90
72936;DHT22;61085;48.804;9.228;2022-12-18T07:38:51;-6.80;99.90
72936;DHT22;61085;48.804;9.228;2022-12-18T07:41:18;-6.80;99.90
72936;DHT22;61085;48.804;9.228;2022-12-18T07:43:44;-6.80;99.90
72936;DHT22;61085;48.804;9.228;2022-12-18T07:46:11;-6.60;99.90
72936;DHT22;61085;48.804;9.228;2022-12-18T07:48:39;-6.70;99.90
72936;DHT22;61085;48.804;9.228;2022-12-18T07:51:06;-6.60;99.90
72936;DHT22;61085;48.804;9.228;2022-12-18T07:53:33;-6.60;99.70
72936;DHT22;61085;48.804;9.228;2022-12-18T07:56:08;-6.60;99.80
72936;DHT22;61085;48.804;9.228;2022-12-18T07:58:34;-6.60;99.90
72936;DHT22;61085;48.804;9.228;2022-12-18T08:01:08;-6.50;99.90
72936;DHT22;61085;48.804;9.228;2022-12-18T08:03:34;-6.50;99.70
72936;DHT22;61085;48.804;9.228;2022-12-18T08:06:07;-6.40;99.90
72936;DHT22;61085;48.804;9.228;2022-12-18T08:08:34;-6.20;99.90
72936;DHT22;61085;48.804;9.228;2022-12-18T08:11:00;-6.10;99.90
72936;DHT22;61085;48.804;9.228;2022-12-18T08:13:26;-6.10;99.90
72936;DHT22;61085;48.804;9.228;2022-12-18T08:16:05;-6.10;99.90
72936;DHT22;61085;48.804;9.228;2022-12-18T08:18:37;-6.00;99.90
72936;DHT22;61085;48.804;9.228;2022-12-18T08:21:13;-6.00;98.70
72936;DHT22;61085;48.804;9.228;2022-12-18T08:23:40;-5.90;99.30
72936;DHT22;61085;48.804;9.228;2022-12-18T08:26:06;-6.00;98.00
72936;DHT22;61085;48.804;9.228;2022-12-18T08:28:32;-6.10;98.80
72936;DHT22;61085;48.804;9.228;2022-12-18T08:30:58;-6.00;99.90
72936;DHT22;61085;48.804;9.228;2022-12-18T08:33:24;-5.80;99.90
72936;DHT22;61085;48.804;9.228;2022-12-18T08:35:49;-5.70;99.80
72936;DHT22;61085;48.804;9.228;2022-12-18T08:38:15;-5.80;98.90
72936;DHT22;61085;48.804;9.228;2022-12-18T08:40:41;-5.70;98.70
72936;DHT22;61085;48.804;9.228;2022-12-18T08:43:09;-5.60;98.10
72936;DHT22;61085;48.804;9.228;2022-12-18T08:45:53;-5.80;97.70
72936;DHT22;61085;48.804;9.228;2022-12-18T08:48:19;-5.70;98.00
72936;DHT22;61085;48.804;9.228;2022-12-18T08:50:54;-5.80;97.70
72936;DHT22;61085;48.804;9.228;2022-12-18T08:53:19;-5.70;97.90
72936;DHT22;61085;48.804;9.228;2022-12-18T08:55:45;-5.50;97.30
72936;DHT22;61085;48.804;9.228;2022-12-18T08:58:10;-5.40;99.00
72936;DHT22;61085;48.804;9.228;2022-12-18T09:00:36;-5.20;98.20
72936;DHT22;61085;48.804;9.228;2022-12-18T09:03:02;-5.30;98.30
72936;DHT22;61085;48.804;9.228;2022-12-18T09:05:27;-5.40;97.00
72936;DHT22;61085;48.804;9.228;2022-12-18T09:07:53;-5.40;99.60
72936;DHT22;61085;48.804;9.228;2022-12-18T09:10:18;-5.30;99.40
72936;DHT22;61085;48.804;9.228;2022-12-18T09:12:46;-5.20;98.30
72936;DHT22;61085;48.804;9.228;2022-12-18T09:15:12;-5.30;97.00
72936;DHT22;61085;48.804;9.228;2022-12-18T09:17:37;-5.20;97.20
72936;DHT22;61085;48.804;9.228;2022-12-18T09:20:03;-5.20;97.90
72936;DHT22;61085;48.804;9.228;2022-12-18T09:22:29;-5.00;96.90
72936;DHT22;61085;48.804;9.228;2022-12-18T09:24:54;-4.90;96.20
72936;DHT22;61085;48.804;9.228;2022-12-18T09:27:20;-5.10;96.70
72936;DHT22;61085;48.804;9.228;2022-12-18T09:29:46;-4.80;96.70
72936;DHT22;61085;48.804;9.228;2022-12-18T09:32:11;-4.70;96.50
72936;DHT22;61085;48.804;9.228;2022-12-18T09:34:37;-4.80;96.90
72936;DHT22;61085;48.804;9.228;2022-12-18T09:37:02;-4.50;96.90
72936;DHT22;61085;48.804;9.228;2022-12-18T09:39:28;-4.50;96.70
72936;DHT22;61085;48.804;9.228;2022-12-18T09:41:56;-4.30;96.40
72936;DHT22;61085;48.804;9.228;2022-12-18T09:44:27;-4.10;95.40
72936;DHT22;61085;48.804;9.228;2022-12-18T09:47:24;-4.10;95.50
72936;DHT22;61085;48.804;9.228;2022-12-18T09:49:56;-4.10;96.10
72936;DHT22;61085;48.804;9.228;2022-12-18T09:52:45;-3.90;99.90
72936;DHT22;61085;48.804;9.228;2022-12-18T09:57:55;-3.60;96.40
72936;DHT22;61085;48.804;9.228;2022-12-18T10:00:25;-3.70;95.10
72936;DHT22;61085;48.804;9.228;2022-12-18T10:02:54;-3.60;94.00
72936;DHT22;61085;48.804;9.228;2022-12-18T10:08:29;-3.90;95.10
72936;DHT22;61085;48.804;9.228;2022-12-18T10:11:07;-3.70;95.60
72936;DHT22;61085;48.804;9.228;2022-12-18T10:13:39;-3.70;96.20
72936;DHT22;61085;48.804;9.228;2022-12-18T10:16:17;-3.60;95.80
72936;DHT22;61085;48.804;9.228;2022-12-18T10:22:26;-3.30;96.10
72936;DHT22;61085;48.804;9.228;2022-12-18T10:27:25;-2.90;95.60
72936;DHT22;61085;48.804;9.228;2022-12-18T10:29:51;-3.00;95.80
72936;DHT22;61085;48.804;9.228;2022-12-18T10:32:26;-2.70;95.50
72936;DHT22;61085;48.804;9.228;2022-12-18T10:34:54;-2.50;95.00
72936;DHT22;61085;48.804;9.228;2022-12-18T10:37:23;-2.60;95.40
72936;DHT22;61085;48.804;9.228;2022-12-18T10:42:32;-2.90;96.80
72936;DHT22;61085;48.804;9.228;2022-12-18T10:45:09;-3.00;97.10
72936;DHT22;61085;48.804;9.228;2022-12-18T10:47:36;-2.90;97.20
72936;DHT22;61085;48.804;9.228;2022-12-18T10:50:19;-2.90;97.00
72936;DHT22;61085;48.804;9.228;2022-12-18T10:53:00;-3.00;97.10
72936;DHT22;61085;48.804;9.228;2022-12-18T10:55:38;-3.00;97.70
72936;DHT22;61085;48.804;9.228;2022-12-18T10:58:30;-2.90;97.80
72936;DHT22;61085;48.804;9.228;2022-12-18T11:08:32;-2.20;96.40
72936;DHT22;61085;48.804;9.228;2022-12-18T11:10:58;-2.20;96.60
72936;DHT22;61085;48.804;9.228;2022-12-18T11:13:26;-2.00;96.80
72936;DHT22;61085;48.804;9.228;2022-12-18T11:15:52;-2.00;95.70
72936;DHT22;61085;48.804;9.228;2022-12-18T11:18:30;-2.10;95.70
72936;DHT22;61085;48.804;9.228;2022-12-18T11:21:09;-1.80;97.00
72936;DHT22;61085;48.804;9.228;2022-12-18T11:23:38;-1.60;95.40
72936;DHT22;61085;48.804;9.228;2022-12-18T11:26:10;-1.60;96.30
72936;DHT22;61085;48.804;9.228;2022-12-18T11:34:05;-1.20;93.50
72936;DHT22;61085;48.804;9.228;2022-12-18T11:36:44;-1.00;92.90
72936;DHT22;61085;48.804;9.228;2022-12-18T11:42:11;-0.80;92.10
72936;DHT22;61085;48.804;9.228;2022-12-18T11:50:23;-1.00;93.20
72936;DHT22;61085;48.804;9.228;2022-12-18T11:52:50;-0.90;92.70
72936;DHT22;61085;48.804;9.228;2022-12-18T12:00:39;-0.80;92.70
72936;DHT22;61085;48.804;9.228;2022-12-18T12:03:18;-0.80;92.60
72936;DHT22;61085;48.804;9.228;2022-12-18T12:14:13;-0.50;95.80
72936;DHT22;61085;48.804;9.228;2022-12-18T12:22:08;-0.80;95.40
72936;DHT22;61085;48.804;9.228;2022-12-18T12:24:55;-0.70;95.40
72936;DHT22;61085;48.804;9.228;2022-12-18T12:27:42;-0.80;95.10
72936;DHT22;61085;48.804;9.228;2022-12-18T12:30:21;-0.70;95.60
72936;DHT22;61085;48.804;9.228;2022-12-18T12:33:21;-0.60;95.50
72936;DHT22;61085;48.804;9.228;2022-12-18T12:38:35;-0.50;95.50
72936;DHT22;61085;48.804;9.228;2022-12-18T12:41:08;-0.40;95.40
72936;DHT22;61085;48.804;9.228;2022-12-18T12:43:57;-0.50;94.50
72936;DHT22;61085;48.804;9.228;2022-12-18T12:46:24;-0.50;95.20
72936;DHT22;61085;48.804;9.228;2022-12-18T12:49:08;-0.40;95.20
72936;DHT22;61085;48.804;9.228;2022-12-18T12:51:38;-0.40;94.40
72936;DHT22;61085;48.804;9.228;2022-12-18T12:54:15;-0.50;93.90
72936;DHT22;61085;48.804;9.228;2022-12-18T12:56:58;-0.50;94.60
72936;DHT22;61085;48.804;9.228;2022-12-18T13:05:18;-0.70;94.80
72936;DHT22;61085;48.804;9.228;2022-12-18T13:08:12;-0.70;95.20
72936;DHT22;61085;48.804;9.228;2022-12-18T13:10:46;-0.70;95.80
72936;DHT22;61085;48.804;9.228;2022-12-18T13:13:14;-0.40;96.30
72936;DHT22;61085;48.804;9.228;2022-12-18T13:15:45;-0.40;96.00
72936;DHT22;61085;48.804;9.228;2022-12-18T13:18:15;-0.30;98.10
72936;DHT22;61085;48.804;9.228;2022-12-18T13:34:16;0.10;96.20
72936;DHT22;61085;48.804;9.228;2022-12-18T13:36:42;0.10;95.30
72936;DHT22;61085;48.804;9.228;2022-12-18T13:41:44;0.00;95.20
72936;DHT22;61085;48.804;9.228;2022-12-18T13:46:55;0.00;95.30
72936;DHT22;61085;48.804;9.228;2022-12-18T13:51:54;0.00;95.40
72936;DHT22;61085;48.804;9.228;2022-12-18T13:54:33;-0.10;95.20
72936;DHT22;61085;48.804;9.228;2022-12-18T13:57:00;-0.10;96.20
72936;DHT22;61085;48.804;9.228;2022-12-18T13:59:37;0.00;97.10
72936;DHT22;61085;48.804;9.228;2022-12-18T14:02:15;0.10;98.00
72936;DHT22;61085;48.804;9.228;2022-12-18T14:04:45;0.10;97.10
72936;DHT22;61085;48.804;9.228;2022-12-18T14:07:17;0.10;97.50
72936;DHT22;61085;48.804;9.228;2022-12-18T14:09:46;0.10;96.70
72936;DHT22;61085;48.804;9.228;2022-12-18T14:12:21;0.00;96.90
72936;DHT22;61085;48.804;9.228;2022-12-18T14:15:16;0.40;97.60
72936;DHT22;61085;48.804;9.228;2022-12-18T14:17:46;-0.10;97.20
72936;DHT22;61085;48.804;9.228;2022-12-18T14:20:14;-0.10;97.40
72936;DHT22;61085;48.804;9.228;2022-12-18T14:22:46;-0.10;98.70
72936;DHT22;61085;48.804;9.228;2022-12-18T14:27:59;-0.10;97.60
72936;DHT22;61085;48.804;9.228;2022-12-18T14:30:49;-0.10;97.20
72936;DHT22;61085;48.804;9.228;2022-12-18T14:33:44;0.00;97.40
72936;DHT22;61085;48.804;9.228;2022-12-18T14:36:16;-0.40;98.10
72936;DHT22;61085;48.804;9.228;2022-12-18T14:39:16;-0.50;99.00
72936;DHT22;61085;48.804;9.228;2022-12-18T14:41:42;-0.50;98.80
72936;DHT22;61085;48.804;9.228;2022-12-18T14:44:12;-0.50;99.30
72936;DHT22;61085;48.804;9.228;2022-12-18T14:46:47;-0.60;99.40
72936;DHT22;61085;48.804;9.228;2022-12-18T14:49:33;-0.70;99.90
72936;DHT22;61085;48.804;9.228;2022-12-18T14:52:05;-0.60;99.90
72936;DHT22;61085;48.804;9.228;2022-12-18T14:54:32;-0.70;99.90
72936;DHT22;61085;48.804;9.228;2022-12-18T14:57:37;-0.80;99.90
72936;DHT22;61085;48.804;9.228;2022-12-18T15:00:10;-0.80;99.90
72936;DHT22;61085;48.804;9.228;2022-12-18T15:02:40;-0.80;99.90
72936;DHT22;61085;48.804;9.228;2022-12-18T15:05:25;-0.90;99.90
72936;DHT22;61085;48.804;9.228;2022-12-18T15:07:53;-1.00;99.90
72936;DHT22;61085;48.804;9.228;2022-12-18T15:10:22;-1.00;99.90
72936;DHT22;61085;48.804;9.228;2022-12-18T15:18:05;-1.20;99.90
72936;DHT22;61085;48.804;9.228;2022-12-18T15:20:44;-1.20;99.90
72936;DHT22;61085;48.804;9.228;2022-12-18T15:23:20;-1.20;99.90
72936;DHT22;61085;48.804;9.228;2022-12-18T15:25:49;-1.30;99.90
72936;DHT22;61085;48.804;9.228;2022-12-18T15:28:23;-1.40;99.90
72936;DHT22;61085;48.804;9.228;2022-12-18T15:33:44;-1.30;99.90
72936;DHT22;61085;48.804;9.228;2022-12-18T15:36:16;-1.30;99.90
72936;DHT22;61085;48.804;9.228;2022-12-18T15:38:49;-1.30;99.90
72936;DHT22;61085;48.804;9.228;2022-12-18T15:41:19;-1.40;99.90
72936;DHT22;61085;48.804;9.228;2022-12-18T15:43:47;-1.30;99.90
72936;DHT22;61085;48.804;9.228;2022-12-18T15:46:15;-1.40;99.90
72936;DHT22;61085;48.804;9.228;2022-12-18T15:48:46;-1.50;99.90
72936;DHT22;61085;48.804;9.228;2022-12-18T15:51:19;-1.50;99.90
72936;DHT22;61085;48.804;9.228;2022-12-18T15:53:46;-1.40;99.90
72936;DHT22;61085;48.804;9.228;2022-12-18T15:56:13;-1.40;99.90
72936;DHT22;61085;48.804;9.228;2022-12-18T15:58:59;-1.40;99.90
72936;DHT22;61085;48.804;9.228;2022-12-18T16:01:27;-1.50;99.90
72936;DHT22;61085;48.804;9.228;2022-12-18T16:03:53;-1.50;99.90
72936;DHT22;61085;48.804;9.228;2022-12-18T16:06:19;-1.50;99.90
72936;DHT22;61085;48.804;9.228;2022-12-18T16:08:45;-1.50;99.90
72936;DHT22;61085;48.804;9.228;2022-12-18T16:11:31;-1.50;99.90
72936;DHT22;61085;48.804;9.228;2022-12-18T16:14:27;-1.60;99.90
72936;DHT22;61085;48.804;9.228;2022-12-18T16:17:02;-1.70;99.90
72936;DHT22;61085;48.804;9.228;2022-12-18T16:19:28;-1.70;99.90
72936;DHT22;61085;48.804;9.228;2022-12-18T16:21:55;-1.70;99.90
72936;DHT22;61085;48.804;9.228;2022-12-18T16:24:24;-1.70;99.90
72936;DHT22;61085;48.804;9.228;2022-12-18T16:26:50;-1.70;99.90
72936;DHT22;61085;48.804;9.228;2022-12-18T16:29:17;-1.70;99.90
72936;DHT22;61085;48.804;9.228;2022-12-18T16:31:43;-1.60;99.90
72936;DHT22;61085;48.804;9.228;2022-12-18T16:34:22;-1.50;99.90
72936;DHT22;61085;48.804;9.228;2022-12-18T16:36:51;-1.40;99.90
72936;DHT22;61085;48.804;9.228;2022-12-18T16:39:18;-1.40;99.90
72936;DHT22;61085;48.804;9.228;2022-12-18T16:41:44;-1.60;99.90
72936;DHT22;61085;48.804;9.228;2022-12-18T16:44:10;-1.70;99.90
72936;DHT22;61085;48.804;9.228;2022-12-18T16:46:37;-1.40;99.90
72936;DHT22;61085;48.804;9.228;2022-12-18T16:49:02;-1.80;99.90
72936;DHT22;61085;48.804;9.228;2022-12-18T16:51:29;-1.70;99.90
72936;DHT22;61085;48.804;9.228;2022-12-18T16:53:55;-1.70;99.90
72936;DHT22;61085;48.804;9.228;2022-12-18T16:56:23;-1.70;99.90
72936;DHT22;61085;48.804;9.228;2022-12-18T16:58:54;-1.70;99.90
72936;DHT22;61085;48.804;9.228;2022-12-18T17:01:21;-1.80;99.90
72936;DHT22;61085;48.804;9.228;2022-12-18T17:03:55;-1.80;99.90
72936;DHT22;61085;48.804;9.228;2022-12-18T17:06:22;-1.80;99.90
72936;DHT22;61085;48.804;9.228;2022-12-18T17:08:48;-1.70;99.90
72936;DHT22;61085;48.804;9.228;2022-12-18T17:11:18;-1.80;99.90
72936;DHT22;61085;48.804;9.228;2022-12-18T17:13:44;-1.70;99.90
72936;DHT22;61085;48.804;9.228;2022-12-18T17:16:10;-1.60;99.90
72936;DHT22;61085;48.804;9.228;2022-12-18T17:18:36;-1.70;99.90
72936;DHT22;61085;48.804;9.228;2022-12-18T17:21:03;-1.80;99.90
72936;DHT22;61085;48.804;9.228;2022-12-18T17:23:29;-1.80;99.90
72936;DHT22;61085;48.804;9.228;2022-12-18T17:25:56;-1.70;99.90
72936;DHT22;61085;48.804;9.228;2022-12-18T17:28:27;-1.70;99.90
72936;DHT22;61085;48.804;9.228;2022-12-18T17:30:53;-1.70;99.90
72936;DHT22;61085;48.804;9.228;2022-12-18T17:33:20;-1.60;99.90
72936;DHT22;61085;48.804;9.228;2022-12-18T17:35:46;-1.50;99.90
72936;DHT22;61085;48.804;9.228;2022-12-18T17:38:12;-1.40;99.90
72936;DHT22;61085;48.804;9.228;2022-12-18T17:40:38;-1.50;99.90
72936;DHT22;61085;48.804;9.228;2022-12-18T17:43:08;-1.50;99.90
72936;DHT22;61085;48.804;9.228;2022-12-18T17:45:37;-1.50;99.90
72936;DHT22;61085;48.804;9.228;2022-12-18T17:48:04;-1.60;99.90